sensor_id;sensor_type;location;lat;lon;timestamp;pressure;altitude;pressure_sealevel;temperature;humidity
72612;BME280;60655;52.182;4.474;2022-09-01T00:01:36;102297.97;;;17.69;66.13
72612;BME280;60655;52.182;4.474;2022-09-01T00:03:38;102292.63;;;17.63;66.75
72612;BME280;60655;52.182;4.474;2022-09-01T00:05:40;102290.88;;;17.75;66.66
72612;BME280;60655;52.182;4.474;2022-09-01T00:07:41;102293.84;;;17.85;66.28
72612;BME280;60655;52.182;4.474;2022-09-01T00:09:42;102296.66;;;17.90;66.20
72612;BME280;60655;52.182;4.474;2022-09-01T00:11:45;102276.97;;;17.78;65.99
72612;BME280;60655;52.182;4.474;2022-09-01T00:13:47;102285.63;;;17.80;66.42
72612;BME280;60655;52.182;4.474;2022-09-01T00:15:48;102283.41;;;17.77;66.42
72612;BME280;60655;52.182;4.474;2022-09-01T00:17:49;102282.06;;;17.68;66.79
72612;BME280;60655;52.182;4.474;2022-09-01T00:19:50;102284.47;;;17.58;67.16
72612;BME280;60655;52.182;4.474;2022-09-01T00:21:52;102283.16;;;17.78;66.76
72612;BME280;60655;52.182;4.474;2022-09-01T00:23:53;102286.91;;;17.77;66.68
72612;BME280;60655;52.182;4.474;2022-09-01T00:25:54;102260.28;;;17.58;66.82
72612;BME280;60655;52.182;4.474;2022-09-01T00:27:55;102274.09;;;17.61;67.16
72612;BME280;60655;52.182;4.474;2022-09-01T00:29:59;102284.41;;;17.46;67.80
72612;BME280;60655;52.182;4.474;2022-09-01T00:32:01;102258.63;;;17.27;67.73
72612;BME280;60655;52.182;4.474;2022-09-01T00:34:02;102276.19;;;17.41;68.19
72612;BME280;60655;52.182;4.474;2022-09-01T00:36:04;102282.75;;;17.45;68.34
72612;BME280;60655;52.182;4.474;2022-09-01T00:38:05;102283.44;;;17.40;68.20
72612;BME280;60655;52.182;4.474;2022-09-01T00:40:06;102273.88;;;17.44;68.16
72612;BME280;60655;52.182;4.474;2022-09-01T00:42:07;102281.94;;;17.44;68.57
72612;BME280;60655;52.182;4.474;2022-09-01T00:44:13;102280.59;;;17.35;68.85
72612;BME280;60655;52.182;4.474;2022-09-01T00:46:23;102270.81;;;17.41;68.54
72612;BME280;60655;52.182;4.474;2022-09-01T00:48:25;102268.56;;;17.38;68.45
72612;BME280;60655;52.182;4.474;2022-09-01T00:50:26;102239.28;;;17.18;69.10
72612;BME280;60655;52.182;4.474;2022-09-01T00:52:34;102270.59;;;17.42;68.53
72612;BME280;60655;52.182;4.474;2022-09-01T00:54:40;102273.59;;;17.34;69.15
72612;BME280;60655;52.182;4.474;2022-09-01T00:56:44;102266.13;;;17.36;68.91
72612;BME280;60655;52.182;4.474;2022-09-01T00:58:45;102267.13;;;17.24;69.58
72612;BME280;60655;52.182;4.474;2022-09-01T01:00:48;102270.84;;;17.23;69.38
72612;BME280;60655;52.182;4.474;2022-09-01T01:02:51;102268.75;;;17.25;69.72
72612;BME280;60655;52.182;4.474;2022-09-01T01:04:56;102265.41;;;17.29;69.19
72612;BME280;60655;52.182;4.474;2022-09-01T01:06:59;102273.59;;;17.16;69.92
72612;BME280;60655;52.182;4.474;2022-09-01T01:09:04;102263.75;;;17.28;69.56
72612;BME280;60655;52.182;4.474;2022-09-01T01:11:11;102259.28;;;17.22;69.83
72612;BME280;60655;52.182;4.474;2022-09-01T01:13:17;102250.72;;;17.13;69.78
72612;BME280;60655;52.182;4.474;2022-09-01T01:15:19;102263.63;;;17.23;69.59
72612;BME280;60655;52.182;4.474;2022-09-01T01:17:21;102265.09;;;17.19;70.02
72612;BME280;60655;52.182;4.474;2022-09-01T01:19:43;102265.94;;;17.19;69.96
72612;BME280;60655;52.182;4.474;2022-09-01T01:22:07;102253.63;;;17.12;70.28
72612;BME280;60655;52.182;4.474;2022-09-01T01:24:33;102259.13;;;17.17;69.99
72612;BME280;60655;52.182;4.474;2022-09-01T01:26:34;102260.69;;;17.25;70.10
72612;BME280;60655;52.182;4.474;2022-09-01T01:28:40;102258.22;;;17.05;70.49
72612;BME280;60655;52.182;4.474;2022-09-01T01:30:47;102257.34;;;16.93;71.43
72612;BME280;60655;52.182;4.474;2022-09-01T01:32:51;102265.34;;;16.99;70.88
72612;BME280;60655;52.182;4.474;2022-09-01T01:34:52;102237.97;;;16.91;71.00
72612;BME280;60655;52.182;4.474;2022-09-01T01:36:53;102230.13;;;16.71;71.35
72612;BME280;60655;52.182;4.474;2022-09-01T01:39:16;102256.97;;;17.07;70.92
72612;BME280;60655;52.182;4.474;2022-09-01T01:41:17;102257.19;;;17.06;70.94
72612;BME280;60655;52.182;4.474;2022-09-01T01:43:22;102254.81;;;16.98;71.65
72612;BME280;60655;52.182;4.474;2022-09-01T01:45:24;102256.59;;;16.85;72.07
72612;BME280;60655;52.182;4.474;2022-09-01T01:47:25;102254.75;;;16.86;72.05
72612;BME280;60655;52.182;4.474;2022-09-01T01:49:26;102258.97;;;16.75;72.92
72612;BME280;60655;52.182;4.474;2022-09-01T01:51:28;102248.41;;;16.80;72.56
72612;BME280;60655;52.182;4.474;2022-09-01T01:53:32;102248.56;;;16.85;72.11
72612;BME280;60655;52.182;4.474;2022-09-01T01:55:33;102253.16;;;16.78;72.34
72612;BME280;60655;52.182;4.474;2022-09-01T01:57:34;102252.00;;;16.74;72.82
72612;BME280;60655;52.182;4.474;2022-09-01T01:59:35;102236.84;;;16.80;72.27
72612;BME280;60655;52.182;4.474;2022-09-01T02:01:38;102237.81;;;16.67;72.36
72612;BME280;60655;52.182;4.474;2022-09-01T02:03:42;102223.81;;;16.59;72.74
72612;BME280;60655;52.182;4.474;2022-09-01T02:05:44;102247.66;;;16.73;72.69
72612;BME280;60655;52.182;4.474;2022-09-01T02:07:46;102243.34;;;16.72;72.41
72612;BME280;60655;52.182;4.474;2022-09-01T02:09:47;102245.47;;;16.64;73.00
72612;BME280;60655;52.182;4.474;2022-09-01T02:11:48;102261.22;;;16.78;72.21
72612;BME280;60655;52.182;4.474;2022-09-01T02:13:54;102248.22;;;16.75;72.09
72612;BME280;60655;52.182;4.474;2022-09-01T02:16:03;102258.41;;;16.73;72.35
72612;BME280;60655;52.182;4.474;2022-09-01T02:18:04;102247.34;;;16.81;71.96
72612;BME280;60655;52.182;4.474;2022-09-01T02:20:06;102255.13;;;16.71;72.38
72612;BME280;60655;52.182;4.474;2022-09-01T02:22:07;102247.66;;;16.73;72.10
72612;BME280;60655;52.182;4.474;2022-09-01T02:24:11;102246.31;;;16.82;71.74
72612;BME280;60655;52.182;4.474;2022-09-01T02:26:13;102256.81;;;16.66;72.51
72612;BME280;60655;52.182;4.474;2022-09-01T02:28:16;102242.16;;;16.62;72.42
72612;BME280;60655;52.182;4.474;2022-09-01T02:30:18;102237.28;;;16.77;71.77
72612;BME280;60655;52.182;4.474;2022-09-01T02:32:19;102239.75;;;16.78;71.82
72612;BME280;60655;52.182;4.474;2022-09-01T02:34:23;102235.63;;;16.76;72.05
72612;BME280;60655;52.182;4.474;2022-09-01T02:36:26;102242.75;;;16.70;72.03
72612;BME280;60655;52.182;4.474;2022-09-01T02:38:28;102226.06;;;16.62;72.01
72612;BME280;60655;52.182;4.474;2022-09-01T02:40:30;102231.66;;;16.60;72.51
72612;BME280;60655;52.182;4.474;2022-09-01T02:42:33;102240.72;;;16.66;72.13
72612;BME280;60655;52.182;4.474;2022-09-01T02:44:34;102229.63;;;16.55;72.42
72612;BME280;60655;52.182;4.474;2022-09-01T02:46:41;102218.47;;;16.59;72.19
72612;BME280;60655;52.182;4.474;2022-09-01T02:48:43;102234.63;;;16.52;72.75
72612;BME280;60655;52.182;4.474;2022-09-01T02:50:45;102239.00;;;16.46;73.10
72612;BME280;60655;52.182;4.474;2022-09-01T02:52:46;102226.56;;;16.52;73.08
72612;BME280;60655;52.182;4.474;2022-09-01T02:54:51;102239.25;;;16.45;72.97
72612;BME280;60655;52.182;4.474;2022-09-01T02:56:55;102223.72;;;16.47;nan
72612;BME280;60655;52.182;4.474;2022-09-01T02:58:56;102225.31;;;16.54;72.72
72612;BME280;60655;52.182;4.474;2022-09-01T03:00:57;102228.34;;;16.40;72.98
72612;BME280;60655;52.182;4.474;2022-09-01T03:03:00;102224.47;;;16.54;72.75
72612;BME280;60655;52.182;4.474;2022-09-01T03:05:01;102225.66;;;16.40;73.00
72612;BME280;60655;52.182;4.474;2022-09-01T03:07:04;102234.00;;;16.32;73.12
72612;BME280;60655;52.182;4.474;2022-09-01T03:09:08;102226.16;;;16.30;73.52
72612;BME280;60655;52.182;4.474;2022-09-01T03:11:09;102218.38;;;16.22;73.60
72612;BME280;60655;52.182;4.474;2022-09-01T03:13:14;102224.69;;;16.34;73.32
72612;BME280;60655;52.182;4.474;2022-09-01T03:15:15;102221.19;;;16.34;73.04
72612;BME280;60655;52.182;4.474;2022-09-01T03:17:16;102224.53;;;16.29;73.42
72612;BME280;60655;52.182;4.474;2022-09-01T03:19:17;102226.81;;;16.26;73.72
72612;BME280;60655;52.182;4.474;2022-09-01T03:21:19;102231.31;;;16.32;73.22
72612;BME280;60655;52.182;4.474;2022-09-01T03:23:20;102220.03;;;16.23;73.70
72612;BME280;60655;52.182;4.474;2022-09-01T03:25:22;102224.19;;;16.19;73.31
72612;BME280;60655;52.182;4.474;2022-09-01T03:27:24;102223.16;;;16.20;73.51
72612;BME280;60655;52.182;4.474;2022-09-01T03:29:25;102191.16;;;16.00;73.59
72612;BME280;60655;52.182;4.474;2022-09-01T03:31:26;102226.66;;;16.20;73.28
72612;BME280;60655;52.182;4.474;2022-09-01T03:33:27;102224.66;;;16.16;73.19
72612;BME280;60655;52.182;4.474;2022-09-01T03:35:29;102223.22;;;16.13;73.57
72612;BME280;60655;52.182;4.474;2022-09-01T03:37:32;102233.81;;;16.27;72.75
72612;BME280;60655;52.182;4.474;2022-09-01T03:39:33;102224.53;;;16.29;72.70
72612;BME280;60655;52.182;4.474;2022-09-01T03:41:35;102226.53;;;16.34;72.62
72612;BME280;60655;52.182;4.474;2022-09-01T03:43:36;102224.25;;;16.12;73.10
72612;BME280;60655;52.182;4.474;2022-09-01T03:45:38;102217.44;;;16.16;72.83
72612;BME280;60655;52.182;4.474;2022-09-01T03:47:41;102214.41;;;16.06;72.86
72612;BME280;60655;52.182;4.474;2022-09-01T03:49:42;102220.81;;;16.05;72.98
72612;BME280;60655;52.182;4.474;2022-09-01T03:51:45;102215.50;;;15.99;73.50
72612;BME280;60655;52.182;4.474;2022-09-01T03:53:46;102210.53;;;16.02;73.19
72612;BME280;60655;52.182;4.474;2022-09-01T03:55:48;102211.94;;;16.05;73.34
72612;BME280;60655;52.182;4.474;2022-09-01T03:57:50;102211.81;;;16.18;72.56
72612;BME280;60655;52.182;4.474;2022-09-01T03:59:51;102213.25;;;15.96;72.47
72612;BME280;60655;52.182;4.474;2022-09-01T04:01:53;102200.06;;;15.94;73.06
72612;BME280;60655;52.182;4.474;2022-09-01T04:03:57;102209.56;;;15.90;72.96
72612;BME280;60655;52.182;4.474;2022-09-01T04:05:59;102206.47;;;15.93;73.07
72612;BME280;60655;52.182;4.474;2022-09-01T04:08:03;102205.53;;;15.81;73.79
72612;BME280;60655;52.182;4.474;2022-09-01T04:10:05;102205.31;;;15.82;72.72
72612;BME280;60655;52.182;4.474;2022-09-01T04:12:11;102198.31;;;15.81;73.40
72612;BME280;60655;52.182;4.474;2022-09-01T04:14:15;102184.31;;;15.79;73.07
72612;BME280;60655;52.182;4.474;2022-09-01T04:16:30;102199.03;;;15.95;72.69
72612;BME280;60655;52.182;4.474;2022-09-01T04:18:50;102197.06;;;15.84;72.74
72612;BME280;60655;52.182;4.474;2022-09-01T04:20:55;102192.66;;;15.90;72.65
72612;BME280;60655;52.182;4.474;2022-09-01T04:22:56;102182.84;;;15.83;72.00
72612;BME280;60655;52.182;4.474;2022-09-01T04:24:57;102193.81;;;15.75;73.03
72612;BME280;60655;52.182;4.474;2022-09-01T04:27:00;102193.00;;;15.75;72.89
72612;BME280;60655;52.182;4.474;2022-09-01T04:29:02;102196.16;;;15.90;71.88
72612;BME280;60655;52.182;4.474;2022-09-01T04:31:09;102197.59;;;15.93;72.57
72612;BME280;60655;52.182;4.474;2022-09-01T04:33:14;102201.53;;;15.90;72.16
72612;BME280;60655;52.182;4.474;2022-09-01T04:35:17;102204.56;;;16.00;71.74
72612;BME280;60655;52.182;4.474;2022-09-01T04:37:20;102202.44;;;15.84;71.53
72612;BME280;60655;52.182;4.474;2022-09-01T04:39:22;102203.03;;;15.86;71.66
72612;BME280;60655;52.182;4.474;2022-09-01T04:41:24;102210.94;;;15.74;72.49
72612;BME280;60655;52.182;4.474;2022-09-01T04:43:26;102199.13;;;15.82;71.95
72612;BME280;60655;52.182;4.474;2022-09-01T04:45:27;102202.72;;;15.69;71.80
72612;BME280;60655;52.182;4.474;2022-09-01T04:47:28;102208.03;;;15.76;72.19
72612;BME280;60655;52.182;4.474;2022-09-01T04:49:32;102207.91;;;15.64;72.53
72612;BME280;60655;52.182;4.474;2022-09-01T04:51:33;102204.31;;;15.77;72.37
72612;BME280;60655;52.182;4.474;2022-09-01T04:53:36;102204.88;;;15.85;71.91
72612;BME280;60655;52.182;4.474;2022-09-01T04:55:39;102203.38;;;15.90;71.55
72612;BME280;60655;52.182;4.474;2022-09-01T04:57:48;102191.13;;;15.75;71.26
72612;BME280;60655;52.182;4.474;2022-09-01T04:59:49;102204.50;;;15.82;71.51
72612;BME280;60655;52.182;4.474;2022-09-01T05:01:50;102204.78;;;15.67;72.24
72612;BME280;60655;52.182;4.474;2022-09-01T05:03:54;102205.06;;;15.59;72.31
72612;BME280;60655;52.182;4.474;2022-09-01T05:06:01;102213.00;;;15.72;71.10
72612;BME280;60655;52.182;4.474;2022-09-01T05:08:05;102193.53;;;15.59;71.37
72612;BME280;60655;52.182;4.474;2022-09-01T05:10:08;102213.69;;;15.61;71.40
72612;BME280;60655;52.182;4.474;2022-09-01T05:12:09;102209.97;;;15.62;71.86
72612;BME280;60655;52.182;4.474;2022-09-01T05:14:16;102204.56;;;15.69;71.58
72612;BME280;60655;52.182;4.474;2022-09-01T05:16:22;102213.00;;;15.72;71.47
72612;BME280;60655;52.182;4.474;2022-09-01T05:18:25;102202.25;;;15.79;70.95
72612;BME280;60655;52.182;4.474;2022-09-01T05:20:27;102202.28;;;15.72;71.13
72612;BME280;60655;52.182;4.474;2022-09-01T05:22:29;102198.53;;;15.80;71.19
72612;BME280;60655;52.182;4.474;2022-09-01T05:24:31;102209.25;;;15.80;71.49
72612;BME280;60655;52.182;4.474;2022-09-01T05:26:34;102206.97;;;15.83;71.58
72612;BME280;60655;52.182;4.474;2022-09-01T05:28:38;102205.53;;;15.81;71.18
72612;BME280;60655;52.182;4.474;2022-09-01T05:30:40;102200.78;;;15.83;71.24
72612;BME280;60655;52.182;4.474;2022-09-01T05:32:41;102205.63;;;15.68;70.84
72612;BME280;60655;52.182;4.474;2022-09-01T05:34:43;102208.28;;;15.68;70.03
72612;BME280;60655;52.182;4.474;2022-09-01T05:36:45;102209.03;;;15.81;70.43
72612;BME280;60655;52.182;4.474;2022-09-01T05:38:50;102207.88;;;15.71;70.05
72612;BME280;60655;52.182;4.474;2022-09-01T05:40:57;102204.44;;;15.88;69.51
72612;BME280;60655;52.182;4.474;2022-09-01T05:42:59;102203.69;;;15.81;69.79
72612;BME280;60655;52.182;4.474;2022-09-01T05:45:00;102217.91;;;15.82;69.26
72612;BME280;60655;52.182;4.474;2022-09-01T05:47:02;102209.44;;;15.85;69.39
72612;BME280;60655;52.182;4.474;2022-09-01T05:49:06;102206.16;;;15.83;68.55
72612;BME280;60655;52.182;4.474;2022-09-01T05:51:09;102221.94;;;15.91;68.57
72612;BME280;60655;52.182;4.474;2022-09-01T05:53:11;102213.69;;;15.93;68.67
72612;BME280;60655;52.182;4.474;2022-09-01T05:55:17;102210.59;;;15.89;68.28
72612;BME280;60655;52.182;4.474;2022-09-01T05:57:18;102209.78;;;15.88;68.28
72612;BME280;60655;52.182;4.474;2022-09-01T05:59:19;102210.78;;;15.94;68.06
72612;BME280;60655;52.182;4.474;2022-09-01T06:01:25;102217.56;;;15.97;68.54
72612;BME280;60655;52.182;4.474;2022-09-01T06:03:28;102217.34;;;15.98;67.90
72612;BME280;60655;52.182;4.474;2022-09-01T06:05:29;102208.91;;;15.95;68.17
72612;BME280;60655;52.182;4.474;2022-09-01T06:07:31;102178.13;;;15.79;68.16
72612;BME280;60655;52.182;4.474;2022-09-01T06:09:41;102206.84;;;15.97;68.23
72612;BME280;60655;52.182;4.474;2022-09-01T06:11:44;102219.34;;;16.09;68.13
72612;BME280;60655;52.182;4.474;2022-09-01T06:13:46;102219.03;;;16.17;67.78
72612;BME280;60655;52.182;4.474;2022-09-01T06:15:48;102215.78;;;16.15;67.66
72612;BME280;60655;52.182;4.474;2022-09-01T06:17:49;102216.09;;;16.26;68.19
72612;BME280;60655;52.182;4.474;2022-09-01T06:19:52;102213.31;;;16.39;67.29
72612;BME280;60655;52.182;4.474;2022-09-01T06:21:55;102216.41;;;16.36;67.31
72612;BME280;60655;52.182;4.474;2022-09-01T06:23:57;102219.41;;;16.46;66.44
72612;BME280;60655;52.182;4.474;2022-09-01T06:25:58;102210.41;;;16.59;66.34
72612;BME280;60655;52.182;4.474;2022-09-01T06:27:59;102210.84;;;16.55;65.84
72612;BME280;60655;52.182;4.474;2022-09-01T06:30:05;102217.84;;;16.57;66.86
72612;BME280;60655;52.182;4.474;2022-09-01T06:32:14;102208.91;;;16.44;66.54
72612;BME280;60655;52.182;4.474;2022-09-01T06:34:15;102222.28;;;16.26;65.95
72612;BME280;60655;52.182;4.474;2022-09-01T06:36:19;102212.75;;;16.30;65.65
72612;BME280;60655;52.182;4.474;2022-09-01T06:38:21;102211.22;;;16.41;65.78
72612;BME280;60655;52.182;4.474;2022-09-01T06:40:23;102211.81;;;16.43;65.00
72612;BME280;60655;52.182;4.474;2022-09-01T06:42:24;102215.78;;;16.59;65.09
72612;BME280;60655;52.182;4.474;2022-09-01T06:44:26;102218.44;;;16.65;64.83
72612;BME280;60655;52.182;4.474;2022-09-01T06:46:28;102213.31;;;16.57;65.23
72612;BME280;60655;52.182;4.474;2022-09-01T06:48:29;102217.78;;;16.45;64.75
72612;BME280;60655;52.182;4.474;2022-09-01T06:50:30;102215.25;;;16.50;64.55
72612;BME280;60655;52.182;4.474;2022-09-01T06:52:31;102217.31;;;16.48;64.60
72612;BME280;60655;52.182;4.474;2022-09-01T06:54:32;102224.84;;;16.64;64.88
72612;BME280;60655;52.182;4.474;2022-09-01T06:56:35;102224.78;;;16.71;63.81
72612;BME280;60655;52.182;4.474;2022-09-01T06:58:35;102221.50;;;16.69;63.66
72612;BME280;60655;52.182;4.474;2022-09-01T07:00:38;102222.47;;;16.74;64.28
72612;BME280;60655;52.182;4.474;2022-09-01T07:02:41;102221.53;;;16.62;65.14
72612;BME280;60655;52.182;4.474;2022-09-01T07:04:44;102225.00;;;16.87;64.53
72612;BME280;60655;52.182;4.474;2022-09-01T07:06:46;102224.03;;;17.00;63.72
72612;BME280;60655;52.182;4.474;2022-09-01T07:08:56;102222.59;;;17.16;62.91
72612;BME280;60655;52.182;4.474;2022-09-01T07:10:58;102219.97;;;17.09;62.55
72612;BME280;60655;52.182;4.474;2022-09-01T07:12:59;102217.66;;;17.13;62.10
72612;BME280;60655;52.182;4.474;2022-09-01T07:15:01;102227.13;;;17.15;63.12
72612;BME280;60655;52.182;4.474;2022-09-01T07:17:02;102222.28;;;17.24;62.51
72612;BME280;60655;52.182;4.474;2022-09-01T07:19:03;102220.78;;;17.28;62.18
72612;BME280;60655;52.182;4.474;2022-09-01T07:21:11;102232.44;;;17.22;61.73
72612;BME280;60655;52.182;4.474;2022-09-01T07:23:12;102228.25;;;17.26;62.22
72612;BME280;60655;52.182;4.474;2022-09-01T07:25:15;102232.81;;;17.55;61.50
72612;BME280;60655;52.182;4.474;2022-09-01T07:27:17;102233.41;;;17.58;61.89
72612;BME280;60655;52.182;4.474;2022-09-01T07:29:18;102228.47;;;17.54;60.68
72612;BME280;60655;52.182;4.474;2022-09-01T07:31:26;102229.19;;;17.62;60.42
72612;BME280;60655;52.182;4.474;2022-09-01T07:33:28;102229.50;;;17.72;60.91
72612;BME280;60655;52.182;4.474;2022-09-01T07:35:31;102219.50;;;17.61;60.51
72612;BME280;60655;52.182;4.474;2022-09-01T07:37:37;102226.94;;;17.77;61.08
72612;BME280;60655;52.182;4.474;2022-09-01T07:39:39;102225.97;;;17.71;60.32
72612;BME280;60655;52.182;4.474;2022-09-01T07:41:45;102229.41;;;17.78;61.08
72612;BME280;60655;52.182;4.474;2022-09-01T07:43:47;102218.66;;;17.78;61.24
72612;BME280;60655;52.182;4.474;2022-09-01T07:45:55;102227.66;;;17.84;60.66
72612;BME280;60655;52.182;4.474;2022-09-01T07:47:58;102223.94;;;17.85;60.70
72612;BME280;60655;52.182;4.474;2022-09-01T07:50:08;102226.75;;;18.02;61.27
72612;BME280;60655;52.182;4.474;2022-09-01T07:52:10;102231.31;;;18.01;61.18
72612;BME280;60655;52.182;4.474;2022-09-01T07:54:11;102238.28;;;17.91;61.02
72612;BME280;60655;52.182;4.474;2022-09-01T07:56:14;102234.19;;;17.76;61.25
72612;BME280;60655;52.182;4.474;2022-09-01T07:58:18;102233.41;;;17.99;60.65
72612;BME280;60655;52.182;4.474;2022-09-01T08:00:20;102236.44;;;17.91;61.01
72612;BME280;60655;52.182;4.474;2022-09-01T08:02:21;102230.38;;;17.96;61.29
72612;BME280;60655;52.182;4.474;2022-09-01T08:04:24;102224.97;;;17.96;61.18
72612;BME280;60655;52.182;4.474;2022-09-01T08:06:27;102225.50;;;18.16;59.53
72612;BME280;60655;52.182;4.474;2022-09-01T08:08:29;102232.06;;;18.43;59.38
72612;BME280;60655;52.182;4.474;2022-09-01T08:10:30;102230.53;;;18.36;59.35
72612;BME280;60655;52.182;4.474;2022-09-01T08:12:31;102235.69;;;18.37;59.90
72612;BME280;60655;52.182;4.474;2022-09-01T08:14:33;102230.19;;;18.44;59.44
72612;BME280;60655;52.182;4.474;2022-09-01T08:16:34;102238.84;;;18.58;58.96
72612;BME280;60655;52.182;4.474;2022-09-01T08:18:35;102231.00;;;18.56;58.77
72612;BME280;60655;52.182;4.474;2022-09-01T08:20:38;102235.72;;;18.61;58.28
72612;BME280;60655;52.182;4.474;2022-09-01T08:22:44;102237.66;;;18.77;59.07
72612;BME280;60655;52.182;4.474;2022-09-01T08:24:45;102237.53;;;18.83;57.86
72612;BME280;60655;52.182;4.474;2022-09-01T08:26:46;102236.00;;;18.87;57.18
72612;BME280;60655;52.182;4.474;2022-09-01T08:28:47;102234.25;;;18.81;56.84
72612;BME280;60655;52.182;4.474;2022-09-01T08:30:48;102239.41;;;18.95;57.70
72612;BME280;60655;52.182;4.474;2022-09-01T08:32:49;102239.88;;;19.03;57.45
72612;BME280;60655;52.182;4.474;2022-09-01T08:34:50;102236.94;;;19.05;56.13
72612;BME280;60655;52.182;4.474;2022-09-01T08:36:51;102239.63;;;19.05;55.95
72612;BME280;60655;52.182;4.474;2022-09-01T08:38:52;102231.56;;;19.05;56.98
72612;BME280;60655;52.182;4.474;2022-09-01T08:40:55;102237.91;;;19.27;56.13
72612;BME280;60655;52.182;4.474;2022-09-01T08:43:13;102235.94;;;19.22;55.50
72612;BME280;60655;52.182;4.474;2022-09-01T08:47:21;102235.84;;;19.46;55.91
72612;BME280;60655;52.182;4.474;2022-09-01T08:49:23;102240.16;;;19.59;56.60
72612;BME280;60655;52.182;4.474;2022-09-01T08:51:36;102246.44;;;19.64;54.72
72612;BME280;60655;52.182;4.474;2022-09-01T08:56:08;102239.25;;;19.70;54.98
72612;BME280;60655;52.182;4.474;2022-09-01T08:58:14;102233.06;;;19.69;54.73
72612;BME280;60655;52.182;4.474;2022-09-01T09:00:19;102240.50;;;19.79;55.02
72612;BME280;60655;52.182;4.474;2022-09-01T09:05:05;102231.84;;;19.94;54.73
72612;BME280;60655;52.182;4.474;2022-09-01T09:09:18;102227.38;;;20.16;53.16
72612;BME280;60655;52.182;4.474;2022-09-01T09:14:00;102225.47;;;20.00;54.06
72612;BME280;60655;52.182;4.474;2022-09-01T09:16:35;102219.03;;;20.01;53.72
72612;BME280;60655;52.182;4.474;2022-09-01T09:20:44;102213.63;;;20.34;53.12
72612;BME280;60655;52.182;4.474;2022-09-01T09:22:47;102209.53;;;20.32;52.52
72612;BME280;60655;52.182;4.474;2022-09-01T09:25:07;102213.22;;;20.26;53.94
72612;BME280;60655;52.182;4.474;2022-09-01T09:27:09;102216.19;;;20.41;52.84
72612;BME280;60655;52.182;4.474;2022-09-01T09:29:09;102217.94;;;20.52;53.44
72612;BME280;60655;52.182;4.474;2022-09-01T09:31:43;102208.69;;;20.65;52.23
72612;BME280;60655;52.182;4.474;2022-09-01T09:33:54;102206.38;;;20.73;52.80
72612;BME280;60655;52.182;4.474;2022-09-01T09:36:15;102206.03;;;20.70;51.29
72612;BME280;60655;52.182;4.474;2022-09-01T09:38:22;102204.41;;;20.69;51.35
72612;BME280;60655;52.182;4.474;2022-09-01T09:40:28;102197.56;;;20.83;51.18
72612;BME280;60655;52.182;4.474;2022-09-01T09:42:29;102195.41;;;20.85;50.30
72612;BME280;60655;52.182;4.474;2022-09-01T09:44:31;102202.53;;;20.91;49.96
72612;BME280;60655;52.182;4.474;2022-09-01T09:46:38;102181.78;;;20.97;49.67
72612;BME280;60655;52.182;4.474;2022-09-01T09:48:39;102187.09;;;21.13;49.34
72612;BME280;60655;52.182;4.474;2022-09-01T09:50:41;102186.09;;;21.19;49.53
72612;BME280;60655;52.182;4.474;2022-09-01T09:52:43;102183.34;;;21.14;50.58
72612;BME280;60655;52.182;4.474;2022-09-01T09:55:04;102173.19;;;21.21;49.24
72612;BME280;60655;52.182;4.474;2022-09-01T09:57:12;102172.03;;;21.44;48.57
72612;BME280;60655;52.182;4.474;2022-09-01T09:59:22;102176.13;;;21.47;48.72
72612;BME280;60655;52.182;4.474;2022-09-01T10:03:44;102172.72;;;21.56;48.20
72612;BME280;60655;52.182;4.474;2022-09-01T10:05:49;102171.91;;;21.56;48.88
72612;BME280;60655;52.182;4.474;2022-09-01T10:07:53;102170.22;;;21.82;47.49
72612;BME280;60655;52.182;4.474;2022-09-01T10:09:58;102172.97;;;21.87;47.01
72612;BME280;60655;52.182;4.474;2022-09-01T10:12:00;102176.53;;;21.93;47.01
72612;BME280;60655;52.182;4.474;2022-09-01T10:14:05;102158.13;;;21.95;47.15
72612;BME280;60655;52.182;4.474;2022-09-01T10:16:14;102169.09;;;22.10;47.12
72612;BME280;60655;52.182;4.474;2022-09-01T10:18:21;102159.59;;;22.07;46.34
72612;BME280;60655;52.182;4.474;2022-09-01T10:20:25;102167.91;;;22.38;45.93
72612;BME280;60655;52.182;4.474;2022-09-01T10:22:26;102170.66;;;22.43;45.47
72612;BME280;60655;52.182;4.474;2022-09-01T10:26:35;102168.38;;;22.24;45.68
72612;BME280;60655;52.182;4.474;2022-09-01T10:28:46;102156.81;;;22.39;45.19
72612;BME280;60655;52.182;4.474;2022-09-01T10:30:52;102163.13;;;22.60;45.33
72612;BME280;60655;52.182;4.474;2022-09-01T10:32:58;102162.31;;;22.60;45.33
72612;BME280;60655;52.182;4.474;2022-09-01T10:35:01;102154.19;;;22.60;44.58
72612;BME280;60655;52.182;4.474;2022-09-01T10:37:05;102161.50;;;22.59;43.91
72612;BME280;60655;52.182;4.474;2022-09-01T10:39:11;102146.34;;;22.58;44.02
72612;BME280;60655;52.182;4.474;2022-09-01T10:43:45;102152.69;;;22.84;42.95
72612;BME280;60655;52.182;4.474;2022-09-01T10:45:48;102158.13;;;22.84;41.92
72612;BME280;60655;52.182;4.474;2022-09-01T10:47:49;102155.19;;;22.96;42.23
72612;BME280;60655;52.182;4.474;2022-09-01T10:51:51;102148.44;;;23.08;41.95
72612;BME280;60655;52.182;4.474;2022-09-01T10:53:55;102146.50;;;22.99;41.96
72612;BME280;60655;52.182;4.474;2022-09-01T10:56:17;102151.44;;;23.17;42.07
72612;BME280;60655;52.182;4.474;2022-09-01T11:00:57;102152.00;;;23.49;42.26
72612;BME280;60655;52.182;4.474;2022-09-01T11:05:15;102139.56;;;23.53;42.14
72612;BME280;60655;52.182;4.474;2022-09-01T11:11:54;102144.72;;;23.75;40.41
72612;BME280;60655;52.182;4.474;2022-09-01T11:14:02;102142.28;;;23.84;39.94
72612;BME280;60655;52.182;4.474;2022-09-01T11:16:38;102148.00;;;23.67;41.27
72612;BME280;60655;52.182;4.474;2022-09-01T11:18:41;102139.56;;;23.84;40.52
72612;BME280;60655;52.182;4.474;2022-09-01T11:20:43;102137.66;;;23.89;40.28